CST,Max TemperatureF,Mean TemperatureF,Min TemperatureF,Max Dew PointF,MeanDew PointF,Min DewpointF,Max Humidity, Mean Humidity, Min Humidity, Max Sea Level PressureIn, Mean Sea Level PressureIn, Min Sea Level PressureIn, Max VisibilityMiles, Mean VisibilityMiles, Min VisibilityMiles, Max Wind SpeedMPH, Mean Wind SpeedMPH, Max Gust SpeedMPH,PrecipitationIn, CloudCover, Events, WindDirDegrees
2012-11-1,59,45,31,38,30,23,79,55,26,30.02,29.95,29.89,10,10,10,10,5,,0.00,3,,260
2012-11-2,57,49,41,37,35,33,76,60,39,30.08,30.01,29.88,10,8,0,10,4,,0.00,0,,359
2012-11-3,63,52,41,39,35,32,80,60,34,30.14,30.07,29.97,10,10,10,16,8,21,0.00,5,Rain,74
2012-11-4,52,44,36,38,34,31,93,70,43,30.22,30.18,30.13,10,10,6,9,6,,0.00,0,,10
2012-11-5,46,39,32,38,33,30,93,76,54,30.18,30.13,30.06,10,10,7,12,3,,0.00,3,Rain,35
2012-11-6,51,42,34,45,39,32,100,85,54,30.06,30.00,29.92,10,6,2,7,2,,0.04,6,Rain,247
2012-11-7,50,46,43,45,43,40,100,90,69,30.17,29.98,29.90,10,5,2,12,6,,0.00,8,Rain,311
2012-11-8,54,44,35,43,38,35,100,80,57,30.29,30.22,30.18,8,6,2,7,2,,0.00,2,,115
2012-11-9,68,52,36,44,40,34,97,67,37,30.24,30.16,30.10,10,8,4,16,6,21,0.00,0,,168
2012-11-10,73,60,46,52,45,40,77,60,42,30.21,30.15,30.10,10,10,10,18,10,25,0.00,0,,175
2012-11-11,70,62,54,55,47,42,88,59,43,30.18,30.09,30.00,10,9,3,24,15,36,0.15,3,Rain,173
2012-11-12,61,46,32,57,41,26,100,81,50,30.47,30.23,29.98,10,7,2,24,15,25,0.47,5,Rain,288
2012-11-13,46,37,28,32,26,23,92,68,41,30.56,30.50,30.47,10,8,1,8,2,,0.00,0,,8
2012-11-14,46,39,32,31,29,26,80,67,50,30.51,30.43,30.35,10,9,2,9,6,,0.00,0,,52
2012-11-15,48,38,28,33,30,26,92,73,48,30.40,30.37,30.33,10,10,7,6,2,,0.00,0,,5
2012-11-16,54,42,29,35,30,25,92,66,34,30.47,30.43,30.38,10,8,4,7,3,,0.00,0,,28
2012-11-17,59,45,31,36,32,28,96,68,35,30.52,30.46,30.42,10,8,4,9,4,,0.00,0,,50
2012-11-18,61,46,31,36,33,29,92,68,34,30.45,30.39,30.35,10,10,6,5,1,,0.00,0,,260
2012-11-19,61,48,34,41,37,31,89,67,41,30.35,30.28,30.17,10,10,9,4,0,,0.00,2,,200
2012-11-20,66,56,46,48,44,38,83,63,47,30.17,30.12,30.05,10,10,7,13,3,,0.00,6,,298
2012-11-21,63,52,41,47,43,39,93,78,50,30.26,30.21,30.15,9,7,3,8,3,,0.00,0,,344
2012-11-22,65,50,34,48,40,34,100,85,45,30.22,30.17,30.06,10,5,0,13,2,,0.00,1,Fog,180
2012-11-23,55,44,31,51,34,21,89,63,45,30.30,30.17,30.05,10,10,10,21,11,28,0.00,3,Rain,308
2012-11-24,36,30,24,23,21,18,85,68,53,30.35,30.27,30.14,10,10,7,10,7,,0.00,1,,301
2012-11-25,57,42,26,30,27,22,85,59,31,30.13,30.04,29.94,10,10,10,15,8,23,0.00,0,,215
2012-11-26,48,40,32,40,34,27,89,75,56,30.26,30.17,30.08,10,9,4,15,4,,0.11,6,Rain,30
2012-11-27,43,35,27,34,29,25,92,80,60,30.40,30.34,30.27,10,9,5,9,6,,0.00,2,,348
2012-11-28,48,36,24,33,26,23,96,74,41,30.48,30.43,30.37,10,8,3,7,1,,0.00,0,,216
2012-11-29,54,40,27,35,30,24,88,68,42,30.41,30.33,30.25,10,9,6,14,5,,0.00,0,,165
2012-11-30,61,48,36,43,37,29,74,66,49,30.26,30.22,30.17,10,10,10,16,9,21,0.00,0,,183